createdAt,value
2017-09-11T00:01:15.674Z,7.50
2017-09-11T00:03:43.935Z,4.67
2017-09-11T00:06:11.400Z,4.53
2017-09-11T00:08:39.631Z,6.73
2017-09-11T00:11:07.089Z,3.70
2017-09-11T00:13:34.548Z,3.93
2017-09-11T00:16:02.024Z,7.00
2017-09-11T00:18:29.479Z,6.10
2017-09-11T00:20:56.931Z,3.97
2017-09-11T00:23:24.517Z,2.57
2017-09-11T00:25:52.063Z,3.70
2017-09-11T00:28:19.524Z,2.83
2017-09-11T00:30:47.853Z,4.03
2017-09-11T00:33:15.351Z,3.57
2017-09-11T00:35:42.815Z,10.03
2017-09-11T00:38:10.880Z,6.17
2017-09-11T00:41:08.823Z,3.83
2017-09-11T00:43:37.123Z,3.70
2017-09-11T00:46:04.699Z,8.40
2017-09-11T00:48:32.172Z,6.60
2017-09-11T00:51:00.388Z,6.67
2017-09-11T00:53:27.845Z,8.67
2017-09-11T00:55:55.316Z,5.13
2017-09-11T00:58:22.772Z,7.93
2017-09-11T01:00:50.250Z,7.27
2017-09-11T01:03:17.708Z,6.07
2017-09-11T01:05:45.937Z,3.37
2017-09-11T01:08:13.403Z,4.70
2017-09-11T01:10:40.886Z,14.53
2017-09-11T01:13:08.346Z,7.63
2017-09-11T01:15:35.811Z,4.10
2017-09-11T01:18:03.364Z,9.20
2017-09-11T01:20:30.919Z,6.63
2017-09-11T01:22:58.384Z,6.73
2017-09-11T01:25:25.934Z,7.07
2017-09-11T01:27:53.912Z,4.50
2017-09-11T01:30:21.371Z,11.43
2017-09-11T01:32:48.843Z,5.43
2017-09-11T01:35:17.068Z,9.50
2017-09-11T01:37:44.534Z,4.37
2017-09-11T01:40:12.106Z,3.83
2017-09-11T01:42:41.253Z,4.03
2017-09-11T01:45:08.706Z,2.83
2017-09-11T01:47:36.184Z,4.03
2017-09-11T01:50:03.644Z,7.20
2017-09-11T01:52:31.115Z,11.43
2017-09-11T01:54:58.692Z,8.53
2017-09-11T01:57:26.160Z,7.03
2017-09-11T01:59:54.317Z,6.20
2017-09-11T02:02:21.782Z,9.97
2017-09-11T02:04:50.023Z,15.97
2017-09-11T02:07:17.498Z,10.70
2017-09-11T02:09:45.068Z,6.60
2017-09-11T02:12:12.632Z,10.13
2017-09-11T02:14:40.088Z,3.97
2017-09-11T02:17:07.558Z,6.63
2017-09-11T02:19:35.630Z,11.53
2017-09-11T02:22:03.887Z,11.80
2017-09-11T02:24:31.359Z,10.43
2017-09-11T02:26:58.902Z,12.50
2017-09-11T02:29:26.364Z,11.73
2017-09-11T02:31:53.827Z,15.10
2017-09-11T02:34:22.095Z,12.70
2017-09-11T02:36:49.656Z,11.90
2017-09-11T02:39:17.212Z,11.73
2017-09-11T02:41:44.765Z,7.47
2017-09-11T02:44:12.231Z,13.67
2017-09-11T02:46:40.620Z,12.17
2017-09-11T02:49:08.872Z,11.13
2017-09-11T02:51:36.339Z,13.27
2017-09-11T02:54:03.807Z,7.70
2017-09-11T02:56:32.160Z,12.00
2017-09-11T02:58:59.608Z,16.33
2017-09-11T03:01:27.096Z,6.00
2017-09-11T03:03:54.644Z,7.23
2017-09-11T03:06:22.104Z,9.43
2017-09-11T03:08:49.659Z,11.50
2017-09-11T03:11:17.119Z,17.80
2017-09-11T03:13:44.579Z,19.43
2017-09-11T03:16:12.124Z,11.80
2017-09-11T03:18:40.359Z,15.77
2017-09-11T03:21:07.823Z,16.43
2017-09-11T03:23:35.312Z,8.53
2017-09-11T03:26:02.775Z,21.20
2017-09-11T03:28:30.846Z,19.10
2017-09-11T03:30:58.321Z,11.70
2017-09-11T03:33:26.583Z,7.23
2017-09-11T03:35:54.855Z,10.87
2017-09-11T03:38:22.323Z,17.50
2017-09-11T03:40:50.542Z,10.27
2017-09-11T03:43:18.052Z,17.30
2017-09-11T03:45:46.319Z,15.07
2017-09-11T03:48:13.778Z,17.03
2017-09-11T03:50:41.244Z,19.17
2017-09-11T03:53:09.483Z,16.73
2017-09-11T03:55:36.959Z,16.63
2017-09-11T03:58:04.440Z,20.73
2017-09-11T04:00:32.691Z,14.80
2017-09-11T04:03:00.159Z,22.73
2017-09-11T04:05:27.617Z,11.67
2017-09-11T04:07:55.091Z,21.73
2017-09-11T04:10:23.324Z,12.67
2017-09-11T04:12:50.801Z,19.57
2017-09-11T04:15:18.460Z,19.27
2017-09-11T04:17:45.927Z,16.13
2017-09-11T04:20:14.161Z,22.13
2017-09-11T04:22:41.639Z,25.43
2017-09-11T04:25:09.200Z,17.70
2017-09-11T04:27:36.755Z,18.23
2017-09-11T04:30:04.320Z,17.97
2017-09-11T04:32:31.792Z,19.07
2017-09-11T04:35:00.047Z,23.43
2017-09-11T04:37:27.520Z,17.03
2017-09-11T04:39:55.063Z,13.83
2017-09-11T04:42:22.527Z,26.67
2017-09-11T04:44:49.990Z,21.10
2017-09-11T04:47:18.214Z,29.70
2017-09-11T04:49:45.670Z,21.67
2017-09-11T04:52:13.176Z,25.67
2017-09-11T04:54:40.671Z,20.73
2017-09-11T04:57:08.816Z,17.00
2017-09-11T04:59:37.980Z,21.03
2017-09-11T05:02:05.440Z,16.37
2017-09-11T05:04:33.071Z,25.07
2017-09-11T05:07:00.551Z,15.93
2017-09-11T05:09:28.088Z,21.73
2017-09-11T05:11:55.603Z,24.73
2017-09-11T05:14:23.856Z,17.90
2017-09-11T05:16:51.308Z,20.20
2017-09-11T05:19:18.766Z,20.27
2017-09-11T05:21:46.232Z,13.43
2017-09-11T05:24:13.698Z,21.43
2017-09-11T05:26:41.936Z,38.63
2017-09-11T05:29:09.403Z,25.77
2017-09-11T05:31:36.864Z,16.97
2017-09-11T05:34:04.340Z,22.83
2017-09-11T05:36:31.808Z,32.57
2017-09-11T05:39:00.040Z,18.00
2017-09-11T05:41:27.504Z,25.60
2017-09-11T05:43:55.003Z,23.20
2017-09-11T05:46:22.492Z,20.07
2017-09-11T05:48:49.995Z,28.20
2017-09-11T05:51:17.474Z,24.17
2017-09-11T05:53:45.704Z,23.50
2017-09-11T05:56:13.170Z,30.33
2017-09-11T05:58:40.664Z,22.10
2017-09-11T06:01:08.898Z,24.33
2017-09-11T06:03:37.276Z,20.90
2017-09-11T06:06:05.060Z,19.03
2017-09-11T06:08:32.531Z,20.00
2017-09-11T06:11:00.767Z,13.17
2017-09-11T06:13:28.672Z,18.23
2017-09-11T06:15:56.915Z,24.90
2017-09-11T06:18:24.387Z,19.50
2017-09-11T06:20:51.966Z,18.10
2017-09-11T06:23:20.187Z,19.10
2017-09-11T06:25:47.656Z,23.50
2017-09-11T06:28:15.351Z,18.20
2017-09-11T06:30:43.592Z,22.67
2017-09-11T06:33:11.073Z,21.50
2017-09-11T06:35:38.543Z,20.50
2017-09-11T06:38:08.327Z,20.63
2017-09-11T06:40:36.712Z,19.67
2017-09-11T06:43:04.183Z,18.70
2017-09-11T06:45:32.409Z,23.20
2017-09-11T06:47:59.872Z,21.93
2017-09-11T06:50:27.339Z,25.33
2017-09-11T06:52:54.843Z,22.63
2017-09-11T06:55:23.066Z,26.50
2017-09-11T06:57:50.548Z,21.60
2017-09-11T07:00:18.104Z,18.00
2017-09-11T07:02:45.555Z,35.07
2017-09-11T07:05:13.043Z,30.47
2017-09-11T07:07:41.259Z,15.50
2017-09-11T07:10:08.726Z,16.43
2017-09-11T07:12:48.187Z,23.43
2017-09-11T07:15:15.656Z,20.23
2017-09-11T07:17:43.880Z,27.80
2017-09-11T07:20:11.379Z,22.30
2017-09-11T07:22:38.931Z,19.77
2017-09-11T07:25:06.395Z,27.00
2017-09-11T07:27:34.768Z,15.50
2017-09-11T07:30:02.230Z,20.17
2017-09-11T07:32:29.707Z,22.30
2017-09-11T07:34:57.938Z,23.77
2017-09-11T07:37:25.401Z,23.90
2017-09-11T07:39:52.894Z,23.00
2017-09-11T07:42:21.145Z,15.50
2017-09-11T07:44:48.603Z,17.73
2017-09-11T07:47:16.064Z,24.77
2017-09-11T07:49:43.570Z,20.73
2017-09-11T07:52:11.771Z,21.97
2017-09-11T07:54:39.230Z,17.60
2017-09-11T07:57:06.835Z,22.23
2017-09-11T07:59:35.066Z,13.93
2017-09-11T08:02:02.543Z,23.50
2017-09-11T08:04:30.015Z,20.33
2017-09-11T08:06:58.269Z,21.20
2017-09-11T08:09:25.735Z,12.43
2017-09-11T08:11:53.211Z,18.60
2017-09-11T08:14:21.514Z,17.53
2017-09-11T08:16:48.976Z,15.77
2017-09-11T08:19:16.488Z,17.27
2017-09-11T08:21:44.085Z,21.90
2017-09-11T08:24:11.547Z,22.40
2017-09-11T08:26:39.051Z,23.93
2017-09-11T08:29:06.608Z,21.43
2017-09-11T08:31:34.172Z,18.50
2017-09-11T08:34:01.644Z,18.47
2017-09-11T08:36:29.870Z,24.17
2017-09-11T08:38:57.340Z,16.53
2017-09-11T08:41:24.913Z,15.37
2017-09-11T08:43:52.496Z,19.93
2017-09-11T08:46:20.715Z,19.80
2017-09-11T08:48:48.316Z,13.73
2017-09-11T08:51:16.684Z,24.07
2017-09-11T08:53:44.247Z,29.13
2017-09-11T08:56:11.795Z,18.57
2017-09-11T08:58:39.378Z,16.97
2017-09-11T09:01:07.595Z,22.47
2017-09-11T09:03:35.065Z,15.83
2017-09-11T09:06:02.890Z,13.67
2017-09-11T09:08:31.133Z,16.27
2017-09-11T09:10:58.598Z,16.70
2017-09-11T09:13:26.845Z,26.30
2017-09-11T09:15:55.148Z,23.60
2017-09-11T09:18:22.621Z,19.37
2017-09-11T09:20:50.852Z,21.90
2017-09-11T09:23:18.326Z,14.97
2017-09-11T09:25:47.304Z,17.60
2017-09-11T09:28:14.788Z,29.73
2017-09-11T09:30:43.020Z,21.40
2017-09-11T09:33:10.828Z,24.37
2017-09-11T09:35:39.061Z,22.87
2017-09-11T09:38:06.557Z,32.27
2017-09-11T09:40:34.113Z,18.30
2017-09-11T09:43:01.588Z,13.97
2017-09-11T09:45:29.814Z,25.10
2017-09-11T09:47:58.051Z,16.43
2017-09-11T09:50:25.535Z,18.83
2017-09-11T09:52:52.987Z,12.83
2017-09-11T09:55:20.497Z,19.80
2017-09-11T09:57:47.943Z,15.50
2017-09-11T10:00:15.501Z,14.60
2017-09-11T10:02:42.976Z,18.80
2017-09-11T10:05:11.199Z,16.70
2017-09-11T10:07:38.663Z,23.27
2017-09-11T10:10:06.248Z,18.10
2017-09-11T10:12:34.602Z,21.03
2017-09-11T10:15:02.090Z,19.90
2017-09-11T10:17:29.596Z,22.07
2017-09-11T10:19:57.072Z,18.73
2017-09-11T10:22:24.545Z,15.57
2017-09-11T10:24:52.184Z,17.10
2017-09-11T10:27:19.644Z,17.90
2017-09-11T10:29:47.108Z,20.20
2017-09-11T10:32:14.598Z,20.83
2017-09-11T10:34:42.843Z,20.83
2017-09-11T10:37:10.327Z,12.20
2017-09-11T10:39:38.924Z,14.97
2017-09-11T10:42:07.156Z,21.93
2017-09-11T10:44:34.619Z,18.73
2017-09-11T10:47:02.083Z,12.03
2017-09-11T10:49:29.541Z,10.07
2017-09-11T10:51:57.030Z,31.13
2017-09-11T10:54:24.567Z,12.47
2017-09-11T10:56:52.264Z,16.20
2017-09-11T10:59:19.719Z,23.93
2017-09-11T11:01:47.227Z,12.90
2017-09-11T11:04:14.688Z,13.80
2017-09-11T11:06:42.248Z,11.47
2017-09-11T11:09:09.835Z,14.13
2017-09-11T11:11:38.058Z,27.33
2017-09-11T11:14:05.539Z,13.13
2017-09-11T11:16:33.011Z,15.30
2017-09-11T11:19:01.243Z,8.47
2017-09-11T11:21:28.728Z,13.87
2017-09-11T11:23:56.288Z,15.47
2017-09-11T11:26:23.743Z,7.90
2017-09-11T11:28:51.203Z,10.60
2017-09-11T11:31:18.960Z,10.07
2017-09-11T11:33:46.428Z,9.70
2017-09-11T11:36:13.883Z,13.17
2017-09-11T11:38:41.359Z,14.87
2017-09-11T11:41:09.591Z,17.90
2017-09-11T11:43:37.048Z,14.57
2017-09-11T11:46:04.515Z,11.20
2017-09-11T11:48:31.978Z,14.43
2017-09-11T11:50:59.535Z,18.87
2017-09-11T11:53:27.010Z,16.80
2017-09-11T11:55:55.248Z,24.83
2017-09-11T11:58:22.712Z,11.20
2017-09-11T12:00:50.439Z,19.53
2017-09-11T12:03:17.900Z,17.67
2017-09-11T12:05:45.354Z,14.63
2017-09-11T12:08:12.840Z,24.03
2017-09-11T12:10:40.300Z,17.47
2017-09-11T12:13:07.828Z,17.97
2017-09-11T12:15:35.301Z,20.60
2017-09-11T12:18:02.789Z,19.13
2017-09-11T12:20:30.238Z,18.40
2017-09-11T12:22:58.004Z,18.83
2017-09-11T12:25:25.467Z,12.43
2017-09-11T12:27:53.358Z,17.27
2017-09-11T12:30:21.591Z,19.63
2017-09-11T12:32:49.159Z,23.43
2017-09-11T12:35:17.455Z,21.20
2017-09-11T12:37:45.700Z,18.50
2017-09-11T12:40:13.275Z,22.90
2017-09-11T12:42:40.835Z,13.10
2017-09-11T12:45:08.619Z,16.97
2017-09-11T12:47:36.058Z,15.70
2017-09-11T12:50:03.614Z,16.33
2017-09-11T12:52:31.861Z,11.87
2017-09-11T12:54:59.376Z,17.93
2017-09-11T12:57:27.618Z,18.33
2017-09-11T12:59:56.608Z,19.33
2017-09-11T13:02:24.088Z,13.63
2017-09-11T13:04:52.343Z,14.27
2017-09-11T13:07:19.820Z,20.80
2017-09-11T13:09:48.052Z,10.37
2017-09-11T13:12:15.515Z,15.43
2017-09-11T13:14:43.307Z,29.20
2017-09-11T13:17:11.541Z,16.77
2017-09-11T13:19:39.039Z,14.87
2017-09-11T13:22:06.788Z,19.00
2017-09-11T13:24:34.347Z,8.37
2017-09-11T13:27:01.840Z,11.37
2017-09-11T13:29:29.317Z,11.40
2017-09-11T13:31:56.819Z,10.90
2017-09-11T13:34:24.294Z,12.37
2017-09-11T13:36:52.576Z,7.80
2017-09-11T13:39:20.855Z,11.00
2017-09-11T13:41:48.301Z,10.13
2017-09-11T13:44:16.548Z,18.83
2017-09-11T13:46:44.028Z,11.33
2017-09-11T13:49:11.491Z,11.70
2017-09-11T13:51:39.745Z,15.93
2017-09-11T13:54:07.316Z,15.00
2017-09-11T13:56:34.783Z,9.33
2017-09-11T13:59:03.023Z,16.57
2017-09-11T14:01:30.508Z,14.53
2017-09-11T14:03:57.964Z,10.83
2017-09-11T14:06:26.244Z,9.50
2017-09-11T14:08:53.801Z,16.67
2017-09-11T14:11:22.068Z,7.03
2017-09-11T14:13:49.801Z,7.37
2017-09-11T14:16:17.260Z,9.93
2017-09-11T14:18:44.715Z,9.40
2017-09-11T14:21:12.223Z,9.20
2017-09-11T14:23:40.460Z,8.57
2017-09-11T14:26:07.923Z,9.63
2017-09-11T14:28:35.651Z,12.37
2017-09-11T14:31:03.114Z,7.90
2017-09-11T14:33:30.579Z,7.83
2017-09-11T14:35:58.283Z,8.63
2017-09-11T14:38:26.515Z,11.77
2017-09-11T14:40:53.988Z,11.80
2017-09-11T14:43:21.458Z,10.00
2017-09-11T14:45:48.920Z,13.70
2017-09-11T14:48:17.931Z,6.93
2017-09-11T14:50:47.744Z,7.17
2017-09-11T14:53:15.226Z,13.10
2017-09-11T14:55:42.708Z,7.53
2017-09-11T14:58:10.183Z,10.80
2017-09-11T15:00:37.639Z,6.63
2017-09-11T15:03:05.095Z,8.40
2017-09-11T15:05:32.580Z,9.93
2017-09-11T15:08:00.818Z,8.40
2017-09-11T15:10:28.308Z,11.40
2017-09-11T15:12:56.551Z,11.67
2017-09-11T15:15:24.280Z,13.47
2017-09-11T15:17:51.764Z,9.17
2017-09-11T15:20:19.340Z,5.40
2017-09-11T15:22:46.804Z,6.90
2017-09-11T15:25:14.400Z,12.73
2017-09-11T15:27:41.932Z,10.33
2017-09-11T15:30:10.187Z,16.00
2017-09-11T15:32:37.653Z,11.50
2017-09-11T15:35:05.436Z,15.03
2017-09-11T15:37:33.668Z,22.87
2017-09-11T15:40:01.128Z,13.47
2017-09-11T15:42:28.724Z,18.63
2017-09-11T15:44:57.031Z,13.97
2017-09-11T15:47:24.527Z,6.07
2017-09-11T15:49:52.181Z,12.20
2017-09-11T15:52:19.643Z,11.93
2017-09-11T15:54:47.119Z,9.20
2017-09-11T15:57:14.613Z,16.13
2017-09-11T15:59:42.071Z,17.93
2017-09-11T16:02:09.692Z,6.47
2017-09-11T16:04:38.240Z,15.07
2017-09-11T16:07:06.195Z,17.63
2017-09-11T16:09:33.655Z,8.93
2017-09-11T16:12:01.129Z,12.53
2017-09-11T16:14:28.606Z,13.60
2017-09-11T16:16:56.068Z,9.53
2017-09-11T16:19:23.556Z,17.63
2017-09-11T16:21:51.028Z,21.00
2017-09-11T16:24:18.500Z,9.90
2017-09-11T16:26:45.975Z,24.43
2017-09-11T16:29:13.449Z,17.27
2017-09-11T16:31:41.009Z,17.03
2017-09-11T16:34:08.483Z,12.73
2017-09-11T16:36:36.712Z,14.40
2017-09-11T16:39:04.196Z,21.33
2017-09-11T16:41:31.759Z,12.67
2017-09-11T16:43:59.239Z,18.60
2017-09-11T16:46:27.464Z,12.87
2017-09-11T16:48:54.943Z,10.23
2017-09-11T16:51:22.437Z,11.80
2017-09-11T16:53:49.895Z,9.13
2017-09-11T16:56:18.453Z,15.10
2017-09-11T16:58:45.916Z,11.80
2017-09-11T17:01:15.067Z,13.57
2017-09-11T17:03:42.912Z,10.10
2017-09-11T17:06:10.360Z,15.03
2017-09-11T17:08:37.844Z,17.80
2017-09-11T17:11:05.316Z,11.80
2017-09-11T17:13:32.815Z,6.90
2017-09-11T17:16:01.059Z,14.00
2017-09-11T17:18:28.805Z,9.10
2017-09-11T17:20:56.255Z,8.93
2017-09-11T17:23:23.723Z,15.90
2017-09-11T17:25:51.287Z,14.03
2017-09-11T17:28:18.768Z,7.50
2017-09-11T17:30:47.004Z,12.33
2017-09-11T17:33:14.472Z,14.43
2017-09-11T17:35:41.940Z,17.87
2017-09-11T17:38:09.424Z,7.73
2017-09-11T17:40:37.748Z,9.27
2017-09-11T17:43:05.211Z,13.00
2017-09-11T17:45:32.678Z,12.00
2017-09-11T17:48:00.156Z,16.83
2017-09-11T17:50:27.623Z,19.00
2017-09-11T17:52:55.847Z,8.60
2017-09-11T17:55:23.326Z,17.40
2017-09-11T17:57:50.799Z,8.27
2017-09-11T18:00:19.043Z,15.97
2017-09-11T18:02:46.544Z,10.87
2017-09-11T18:05:14.797Z,13.37
2017-09-11T18:07:42.305Z,12.33
2017-09-11T18:10:09.792Z,12.20
2017-09-11T18:12:38.015Z,14.43
2017-09-11T18:15:06.243Z,15.13
2017-09-11T18:17:33.803Z,17.30
2017-09-11T18:20:01.267Z,18.17
2017-09-11T18:22:30.377Z,18.73
2017-09-11T18:24:57.980Z,13.40
2017-09-11T18:27:25.451Z,9.57
2017-09-11T18:29:53.059Z,13.50
2017-09-11T18:32:21.328Z,6.53
2017-09-11T18:34:48.840Z,7.27
2017-09-11T18:37:16.315Z,7.07
2017-09-11T18:39:43.797Z,11.33
2017-09-11T18:42:11.353Z,15.10
2017-09-11T18:44:38.811Z,6.80
2017-09-11T18:47:06.367Z,11.03
2017-09-11T18:49:34.460Z,10.93
2017-09-11T18:52:02.685Z,5.90
2017-09-11T18:54:30.164Z,9.10
2017-09-11T18:56:57.628Z,8.93
2017-09-11T18:59:25.179Z,8.03
2017-09-11T19:01:52.692Z,4.50
2017-09-11T19:04:20.195Z,3.30
2017-09-11T19:06:47.663Z,1.50
2017-09-11T19:09:15.432Z,2.40
2017-09-11T19:11:42.884Z,2.67
2017-09-11T19:14:10.427Z,3.03
2017-09-11T19:16:38.200Z,1.40
2017-09-11T19:19:05.776Z,2.80
2017-09-11T19:21:34.011Z,3.07
2017-09-11T19:24:01.488Z,1.00
2017-09-11T19:26:28.961Z,2.60
2017-09-11T19:28:57.209Z,7.53
2017-09-11T19:31:24.656Z,2.80
2017-09-11T19:33:52.120Z,5.03
2017-09-11T19:36:19.609Z,2.50
2017-09-11T19:38:47.837Z,2.70
2017-09-11T19:41:15.346Z,2.43
2017-09-11T19:43:43.599Z,2.67
2017-09-11T19:46:11.072Z,4.10
2017-09-11T19:48:39.292Z,3.73
2017-09-11T19:51:07.086Z,4.30
2017-09-11T19:53:34.548Z,1.90
2017-09-11T19:56:02.227Z,2.87
2017-09-11T19:58:30.792Z,7.97
2017-09-11T20:00:58.288Z,3.17
2017-09-11T20:03:25.751Z,3.40
2017-09-11T20:05:53.468Z,2.17
2017-09-11T20:08:22.444Z,2.70
2017-09-11T20:10:49.926Z,9.60
2017-09-11T20:13:17.681Z,1.63
2017-09-11T20:15:45.135Z,3.97
2017-09-11T20:18:12.628Z,7.60
2017-09-11T20:20:40.360Z,7.67
2017-09-11T20:23:07.819Z,4.93
2017-09-11T20:25:35.376Z,4.80
2017-09-11T20:28:03.727Z,19.63
2017-09-11T20:30:31.187Z,4.23
2017-09-11T20:32:58.651Z,8.60
2017-09-11T20:35:26.228Z,8.03
2017-09-11T20:37:53.743Z,7.90
2017-09-11T20:40:21.241Z,14.50
2017-09-11T20:42:48.712Z,18.27
2017-09-11T20:45:16.972Z,9.00
2017-09-11T20:47:44.535Z,9.87
2017-09-11T20:50:12.035Z,23.23
2017-09-11T20:52:39.503Z,14.17
2017-09-11T20:55:06.960Z,16.07
2017-09-11T20:57:34.464Z,38.97
2017-09-11T21:00:02.027Z,7.47
2017-09-11T21:02:29.485Z,5.30
2017-09-11T21:04:57.752Z,12.97
2017-09-11T21:07:25.312Z,7.57
2017-09-11T21:09:52.783Z,4.40
2017-09-11T21:12:21.022Z,12.83
2017-09-11T21:14:48.487Z,11.83
2017-09-11T21:17:16.857Z,11.17
2017-09-11T21:19:44.327Z,7.57
2017-09-11T21:22:11.797Z,7.30
2017-09-11T21:24:39.271Z,8.97
2017-09-11T21:27:07.832Z,16.57
2017-09-11T21:29:35.296Z,12.40
2017-09-11T21:32:03.533Z,11.17
2017-09-11T21:34:30.999Z,15.40
2017-09-11T21:36:58.467Z,13.07
2017-09-11T21:39:25.936Z,13.13
2017-09-11T21:41:53.927Z,2.57
2017-09-11T21:44:22.176Z,10.10
2017-09-11T21:46:49.632Z,7.63
2017-09-11T21:49:17.137Z,12.67
2017-09-11T21:51:44.607Z,6.77
2017-09-11T21:54:12.071Z,7.47
2017-09-11T21:56:39.567Z,5.70
2017-09-11T21:59:07.060Z,10.57
2017-09-11T22:01:34.708Z,3.47
2017-09-11T22:04:02.237Z,4.93
2017-09-11T22:06:29.751Z,6.50
2017-09-11T22:08:57.248Z,16.10
2017-09-11T22:11:24.762Z,8.40
2017-09-11T22:13:52.222Z,6.40
2017-09-11T22:16:19.688Z,4.37
2017-09-11T22:18:47.184Z,5.23
2017-09-11T22:21:14.879Z,9.20
2017-09-11T22:23:42.396Z,5.97
2017-09-11T22:26:09.872Z,10.67
2017-09-11T22:28:37.420Z,13.73
2017-09-11T22:31:05.655Z,7.60
2017-09-11T22:33:33.123Z,4.37
2017-09-11T22:36:00.583Z,9.83
2017-09-11T22:38:28.059Z,7.90
2017-09-11T22:40:55.536Z,24.10
2017-09-11T22:43:23.763Z,13.23
2017-09-11T22:45:51.223Z,8.23
2017-09-11T22:48:18.698Z,12.33
2017-09-11T22:50:46.151Z,6.53
2017-09-11T22:53:13.622Z,11.20
2017-09-11T22:55:41.862Z,7.90
2017-09-11T22:58:09.343Z,8.50
2017-09-11T23:00:36.808Z,12.67
2017-09-11T23:03:04.363Z,17.57
2017-09-11T23:05:31.824Z,13.30
2017-09-11T23:07:59.296Z,14.70
2017-09-11T23:10:27.559Z,16.27
2017-09-11T23:12:55.036Z,11.23
2017-09-11T23:15:23.262Z,18.60
2017-09-11T23:17:50.839Z,7.83
2017-09-11T23:20:18.807Z,11.60
2017-09-11T23:22:46.271Z,17.23
2017-09-11T23:25:13.823Z,11.13
2017-09-11T23:27:41.280Z,7.13
2017-09-11T23:30:08.744Z,10.53
2017-09-11T23:32:36.294Z,7.27
2017-09-11T23:35:03.751Z,9.10
2017-09-11T23:37:31.211Z,9.63
2017-09-11T23:39:58.672Z,7.97
2017-09-11T23:42:26.135Z,14.70
2017-09-11T23:44:54.398Z,6.00
2017-09-11T23:47:21.974Z,12.97
2017-09-11T23:49:50.194Z,14.43
2017-09-11T23:52:17.652Z,13.40
2017-09-11T23:54:45.143Z,12.03
2017-09-11T23:57:13.812Z,17.33
2017-09-11T23:59:41.284Z,11.70
